Terminal Aerodrome Forecast
Issued by NWS Wilmington, NC

Home | Current Version | Previous Version | Text Only | Print | Product List | Glossary On
Versions: 1 2 3 4 5 6 7 8 9 10 11 12 13 14 15 16 17
288
FTUS42 KILM 291357 AAA
TAFMYR
TAF AMD
KMYR 291357Z 2914/3012 32008KT P6SM SCT045
     FM291800 14010KT P6SM SKC
     FM300200 15003KT P6SM SKC=

USA.gov is the U.S. government's official web portal to all federal, state and local government web resources and services.